sensor_id;sensor_type;location;lat;lon;timestamp;temperature;humidity
15296;DHT22;7749;49.964;7.890;2023-05-16T00:02:14;13.70;99.60
15296;DHT22;7749;49.964;7.890;2023-05-16T00:04:42;13.70;99.90
15296;DHT22;7749;49.964;7.890;2023-05-16T00:07:09;13.60;99.90
15296;DHT22;7749;49.964;7.890;2023-05-16T00:09:37;13.70;99.90
15296;DHT22;7749;49.964;7.890;2023-05-16T00:12:04;13.60;99.90
15296;DHT22;7749;49.964;7.890;2023-05-16T00:14:32;13.60;99.90
15296;DHT22;7749;49.964;7.890;2023-05-16T00:16:59;13.50;99.90
15296;DHT22;7749;49.964;7.890;2023-05-16T00:19:30;13.50;99.90
15296;DHT22;7749;49.964;7.890;2023-05-16T00:22:01;13.50;99.90
15296;DHT22;7749;49.964;7.890;2023-05-16T00:24:31;13.50;99.20
15296;DHT22;7749;49.964;7.890;2023-05-16T00:26:58;13.50;98.00
15296;DHT22;7749;49.964;7.890;2023-05-16T00:29:25;13.40;99.10
15296;DHT22;7749;49.964;7.890;2023-05-16T00:31:53;13.40;93.30
15296;DHT22;7749;49.964;7.890;2023-05-16T00:34:21;13.30;93.40
15296;DHT22;7749;49.964;7.890;2023-05-16T00:36:49;13.40;96.80
15296;DHT22;7749;49.964;7.890;2023-05-16T00:39:19;13.30;85.30
15296;DHT22;7749;49.964;7.890;2023-05-16T00:41:51;13.20;84.20
15296;DHT22;7749;49.964;7.890;2023-05-16T00:44:19;13.20;95.90
15296;DHT22;7749;49.964;7.890;2023-05-16T00:46:46;13.10;96.40
15296;DHT22;7749;49.964;7.890;2023-05-16T00:49:14;13.20;98.30
15296;DHT22;7749;49.964;7.890;2023-05-16T00:51:41;13.30;97.80
15296;DHT22;7749;49.964;7.890;2023-05-16T00:54:09;13.20;99.90
15296;DHT22;7749;49.964;7.890;2023-05-16T00:56:38;13.10;99.90
15296;DHT22;7749;49.964;7.890;2023-05-16T00:59:05;13.10;98.20
15296;DHT22;7749;49.964;7.890;2023-05-16T01:01:34;13.10;94.00
15296;DHT22;7749;49.964;7.890;2023-05-16T01:04:02;13.10;90.70
15296;DHT22;7749;49.964;7.890;2023-05-16T01:06:34;13.10;82.40
15296;DHT22;7749;49.964;7.890;2023-05-16T01:09:01;13.10;93.10
15296;DHT22;7749;49.964;7.890;2023-05-16T01:14:29;13.00;80.80
15296;DHT22;7749;49.964;7.890;2023-05-16T01:20:08;12.90;80.10
15296;DHT22;7749;49.964;7.890;2023-05-16T01:25:55;12.80;87.50
15296;DHT22;7749;49.964;7.890;2023-05-16T01:28:24;12.80;95.60
15296;DHT22;7749;49.964;7.890;2023-05-16T01:30:53;12.80;95.70
15296;DHT22;7749;49.964;7.890;2023-05-16T01:33:24;12.80;94.20
15296;DHT22;7749;49.964;7.890;2023-05-16T01:44:34;12.80;99.90
15296;DHT22;7749;49.964;7.890;2023-05-16T01:47:08;12.80;99.90
15296;DHT22;7749;49.964;7.890;2023-05-16T01:50:05;12.70;99.90
15296;DHT22;7749;49.964;7.890;2023-05-16T01:52:44;12.80;99.90
15296;DHT22;7749;49.964;7.890;2023-05-16T01:55:22;12.80;99.90
15296;DHT22;7749;49.964;7.890;2023-05-16T01:57:52;12.80;99.90
15296;DHT22;7749;49.964;7.890;2023-05-16T02:00:20;12.80;99.90
15296;DHT22;7749;49.964;7.890;2023-05-16T02:02:50;12.80;99.90
15296;DHT22;7749;49.964;7.890;2023-05-16T02:05:17;12.80;99.90
15296;DHT22;7749;49.964;7.890;2023-05-16T02:07:47;12.80;99.90
15296;DHT22;7749;49.964;7.890;2023-05-16T02:10:15;12.80;99.90
15296;DHT22;7749;49.964;7.890;2023-05-16T02:12:42;12.80;99.90
15296;DHT22;7749;49.964;7.890;2023-05-16T02:15:10;12.80;99.90
15296;DHT22;7749;49.964;7.890;2023-05-16T02:17:37;12.70;99.90
15296;DHT22;7749;49.964;7.890;2023-05-16T02:20:05;12.70;99.90
15296;DHT22;7749;49.964;7.890;2023-05-16T02:22:33;12.70;99.90
15296;DHT22;7749;49.964;7.890;2023-05-16T02:25:03;12.60;99.90
15296;DHT22;7749;49.964;7.890;2023-05-16T02:27:30;12.60;99.90
15296;DHT22;7749;49.964;7.890;2023-05-16T02:29:57;12.60;99.90
15296;DHT22;7749;49.964;7.890;2023-05-16T02:32:25;12.60;99.90
15296;DHT22;7749;49.964;7.890;2023-05-16T02:34:52;12.60;99.90
15296;DHT22;7749;49.964;7.890;2023-05-16T02:37:20;12.60;99.90
15296;DHT22;7749;49.964;7.890;2023-05-16T02:39:52;12.50;99.90
15296;DHT22;7749;49.964;7.890;2023-05-16T02:42:21;12.50;99.90
15296;DHT22;7749;49.964;7.890;2023-05-16T02:44:50;12.50;99.90
15296;DHT22;7749;49.964;7.890;2023-05-16T02:47:18;12.50;99.90
15296;DHT22;7749;49.964;7.890;2023-05-16T02:49:45;12.50;99.90
15296;DHT22;7749;49.964;7.890;2023-05-16T02:52:13;12.50;99.90
15296;DHT22;7749;49.964;7.890;2023-05-16T02:54:40;12.50;99.90
15296;DHT22;7749;49.964;7.890;2023-05-16T02:57:07;12.50;99.90
15296;DHT22;7749;49.964;7.890;2023-05-16T02:59:37;12.50;99.90
15296;DHT22;7749;49.964;7.890;2023-05-16T03:02:05;12.50;99.90
15296;DHT22;7749;49.964;7.890;2023-05-16T03:04:32;12.50;99.90
15296;DHT22;7749;49.964;7.890;2023-05-16T03:07:00;12.40;99.90
15296;DHT22;7749;49.964;7.890;2023-05-16T03:09:27;12.40;99.90
15296;DHT22;7749;49.964;7.890;2023-05-16T03:11:57;12.40;99.90
15296;DHT22;7749;49.964;7.890;2023-05-16T03:14:25;12.30;99.90
15296;DHT22;7749;49.964;7.890;2023-05-16T03:16:52;12.40;99.90
15296;DHT22;7749;49.964;7.890;2023-05-16T03:19:23;12.50;99.90
15296;DHT22;7749;49.964;7.890;2023-05-16T03:21:53;12.40;99.90
15296;DHT22;7749;49.964;7.890;2023-05-16T03:24:21;12.40;96.10
15296;DHT22;7749;49.964;7.890;2023-05-16T03:26:49;12.30;90.80
15296;DHT22;7749;49.964;7.890;2023-05-16T03:29:16;12.40;86.70
15296;DHT22;7749;49.964;7.890;2023-05-16T03:31:47;12.50;95.90
15296;DHT22;7749;49.964;7.890;2023-05-16T03:34:15;12.50;90.80
15296;DHT22;7749;49.964;7.890;2023-05-16T03:36:42;12.40;82.20
15296;DHT22;7749;49.964;7.890;2023-05-16T03:39:10;12.40;82.90
15296;DHT22;7749;49.964;7.890;2023-05-16T03:41:37;12.50;87.30
15296;DHT22;7749;49.964;7.890;2023-05-16T03:44:05;12.30;79.10
15296;DHT22;7749;49.964;7.890;2023-05-16T03:46:35;12.30;77.50
15296;DHT22;7749;49.964;7.890;2023-05-16T03:49:07;12.30;65.40
15296;DHT22;7749;49.964;7.890;2023-05-16T03:51:34;12.40;58.40
15296;DHT22;7749;49.964;7.890;2023-05-16T03:54:01;12.50;45.00
15296;DHT22;7749;49.964;7.890;2023-05-16T03:56:29;12.40;49.90
15296;DHT22;7749;49.964;7.890;2023-05-16T03:58:56;12.40;22.60
15296;DHT22;7749;49.964;7.890;2023-05-16T04:01:24;12.30;28.70
15296;DHT22;7749;49.964;7.890;2023-05-16T04:03:51;12.30;36.70
15296;DHT22;7749;49.964;7.890;2023-05-16T04:06:19;12.40;49.60
15296;DHT22;7749;49.964;7.890;2023-05-16T04:08:47;12.40;32.70
15296;DHT22;7749;49.964;7.890;2023-05-16T04:11:15;12.40;28.70
15296;DHT22;7749;49.964;7.890;2023-05-16T04:13:42;12.40;38.00
15296;DHT22;7749;49.964;7.890;2023-05-16T04:16:09;12.40;31.90
15296;DHT22;7749;49.964;7.890;2023-05-16T04:18:37;12.30;37.50
15296;DHT22;7749;49.964;7.890;2023-05-16T04:21:04;12.30;52.50
15296;DHT22;7749;49.964;7.890;2023-05-16T04:23:32;12.30;67.40
15296;DHT22;7749;49.964;7.890;2023-05-16T04:26:01;12.30;90.90
15296;DHT22;7749;49.964;7.890;2023-05-16T04:28:30;12.30;89.90
15296;DHT22;7749;49.964;7.890;2023-05-16T04:31:01;12.30;99.00
15296;DHT22;7749;49.964;7.890;2023-05-16T04:33:29;12.30;99.10
15296;DHT22;7749;49.964;7.890;2023-05-16T04:35:56;12.30;99.90
15296;DHT22;7749;49.964;7.890;2023-05-16T04:38:25;12.30;99.90
15296;DHT22;7749;49.964;7.890;2023-05-16T04:40:52;12.30;99.90
15296;DHT22;7749;49.964;7.890;2023-05-16T04:43:22;12.30;99.90
15296;DHT22;7749;49.964;7.890;2023-05-16T04:45:54;12.30;99.90
15296;DHT22;7749;49.964;7.890;2023-05-16T04:48:24;12.40;99.90
15296;DHT22;7749;49.964;7.890;2023-05-16T04:50:51;12.40;98.00
15296;DHT22;7749;49.964;7.890;2023-05-16T04:53:18;12.40;96.80
15296;DHT22;7749;49.964;7.890;2023-05-16T04:55:49;12.40;99.30
15296;DHT22;7749;49.964;7.890;2023-05-16T04:58:16;12.50;88.90
15296;DHT22;7749;49.964;7.890;2023-05-16T05:00:44;12.50;55.70
15296;DHT22;7749;49.964;7.890;2023-05-16T05:03:11;12.50;55.30
15296;DHT22;7749;49.964;7.890;2023-05-16T05:05:38;12.50;19.40
15296;DHT22;7749;49.964;7.890;2023-05-16T05:08:06;12.70;1.90
15296;DHT22;7749;49.964;7.890;2023-05-16T05:10:36;12.60;1.00
15296;DHT22;7749;49.964;7.890;2023-05-16T05:13:15;12.60;1.00
15296;DHT22;7749;49.964;7.890;2023-05-16T05:16:08;12.60;1.00
15296;DHT22;7749;49.964;7.890;2023-05-16T05:25:04;12.60;1.00
15296;DHT22;7749;49.964;7.890;2023-05-16T05:27:32;12.60;1.00
15296;DHT22;7749;49.964;7.890;2023-05-16T05:29:59;12.60;1.00
15296;DHT22;7749;49.964;7.890;2023-05-16T05:32:27;12.70;1.00
15296;DHT22;7749;49.964;7.890;2023-05-16T05:34:54;12.60;1.00
15296;DHT22;7749;49.964;7.890;2023-05-16T05:37:22;12.50;1.00
15296;DHT22;7749;49.964;7.890;2023-05-16T05:39:49;12.60;1.00
15296;DHT22;7749;49.964;7.890;2023-05-16T05:42:19;12.60;1.00
15296;DHT22;7749;49.964;7.890;2023-05-16T05:44:50;12.70;1.00
15296;DHT22;7749;49.964;7.890;2023-05-16T05:47:18;12.80;1.00
15296;DHT22;7749;49.964;7.890;2023-05-16T05:49:45;12.70;1.00
15296;DHT22;7749;49.964;7.890;2023-05-16T05:52:12;12.60;1.00
15296;DHT22;7749;49.964;7.890;2023-05-16T05:54:42;12.60;1.00
15296;DHT22;7749;49.964;7.890;2023-05-16T05:57:10;12.70;1.00
15296;DHT22;7749;49.964;7.890;2023-05-16T05:59:37;12.80;1.00
15296;DHT22;7749;49.964;7.890;2023-05-16T06:02:05;12.70;1.00
15296;DHT22;7749;49.964;7.890;2023-05-16T06:04:33;12.70;1.00
15296;DHT22;7749;49.964;7.890;2023-05-16T06:07:00;12.60;1.00
15296;DHT22;7749;49.964;7.890;2023-05-16T06:09:27;12.60;1.00
15296;DHT22;7749;49.964;7.890;2023-05-16T06:11:55;12.60;1.00
15296;DHT22;7749;49.964;7.890;2023-05-16T06:14:22;12.80;1.00
15296;DHT22;7749;49.964;7.890;2023-05-16T06:16:50;12.70;1.00
15296;DHT22;7749;49.964;7.890;2023-05-16T06:19:17;12.70;1.00
15296;DHT22;7749;49.964;7.890;2023-05-16T06:21:45;12.60;1.00
15296;DHT22;7749;49.964;7.890;2023-05-16T06:24:15;12.70;1.00
15296;DHT22;7749;49.964;7.890;2023-05-16T06:26:42;12.70;1.00
15296;DHT22;7749;49.964;7.890;2023-05-16T06:29:15;12.70;1.00
15296;DHT22;7749;49.964;7.890;2023-05-16T06:31:47;12.70;1.00
15296;DHT22;7749;49.964;7.890;2023-05-16T06:34:14;12.60;1.00
15296;DHT22;7749;49.964;7.890;2023-05-16T06:36:42;12.50;1.00
15296;DHT22;7749;49.964;7.890;2023-05-16T06:39:10;12.50;1.00
15296;DHT22;7749;49.964;7.890;2023-05-16T06:41:37;12.30;1.00
15296;DHT22;7749;49.964;7.890;2023-05-16T06:44:07;12.30;1.00
15296;DHT22;7749;49.964;7.890;2023-05-16T06:46:35;12.40;1.00
15296;DHT22;7749;49.964;7.890;2023-05-16T06:49:02;12.50;1.00
15296;DHT22;7749;49.964;7.890;2023-05-16T06:51:30;12.40;1.00
15296;DHT22;7749;49.964;7.890;2023-05-16T06:53:57;12.30;1.00
15296;DHT22;7749;49.964;7.890;2023-05-16T06:56:24;12.30;1.00
15296;DHT22;7749;49.964;7.890;2023-05-16T06:58:52;12.40;1.00
15296;DHT22;7749;49.964;7.890;2023-05-16T07:01:28;12.30;1.00
15296;DHT22;7749;49.964;7.890;2023-05-16T07:03:59;12.30;1.00
15296;DHT22;7749;49.964;7.890;2023-05-16T07:06:27;12.30;1.00
15296;DHT22;7749;49.964;7.890;2023-05-16T07:08:54;12.30;1.00
15296;DHT22;7749;49.964;7.890;2023-05-16T07:11:21;12.30;1.00
15296;DHT22;7749;49.964;7.890;2023-05-16T07:13:49;12.30;1.00
15296;DHT22;7749;49.964;7.890;2023-05-16T07:16:19;12.30;1.00
15296;DHT22;7749;49.964;7.890;2023-05-16T07:18:50;12.10;1.00
15296;DHT22;7749;49.964;7.890;2023-05-16T07:21:18;12.10;1.00
15296;DHT22;7749;49.964;7.890;2023-05-16T07:23:45;12.00;1.00
15296;DHT22;7749;49.964;7.890;2023-05-16T07:26:13;12.00;1.00
15296;DHT22;7749;49.964;7.890;2023-05-16T07:28:41;12.00;1.00
15296;DHT22;7749;49.964;7.890;2023-05-16T07:31:09;11.90;1.00
15296;DHT22;7749;49.964;7.890;2023-05-16T07:33:36;11.90;1.00
15296;DHT22;7749;49.964;7.890;2023-05-16T07:36:04;11.80;1.00
15296;DHT22;7749;49.964;7.890;2023-05-16T07:38:43;11.80;1.00
15296;DHT22;7749;49.964;7.890;2023-05-16T07:41:11;11.90;1.00
15296;DHT22;7749;49.964;7.890;2023-05-16T07:43:39;12.10;1.00
15296;DHT22;7749;49.964;7.890;2023-05-16T07:46:06;12.00;1.00
15296;DHT22;7749;49.964;7.890;2023-05-16T07:48:33;12.00;1.00
15296;DHT22;7749;49.964;7.890;2023-05-16T07:51:01;12.20;1.00
15296;DHT22;7749;49.964;7.890;2023-05-16T07:53:28;12.40;1.00
15296;DHT22;7749;49.964;7.890;2023-05-16T07:55:56;12.40;1.00
15296;DHT22;7749;49.964;7.890;2023-05-16T07:58:23;12.50;1.00
15296;DHT22;7749;49.964;7.890;2023-05-16T08:00:51;12.60;1.00
15296;DHT22;7749;49.964;7.890;2023-05-16T08:03:18;12.50;1.00
15296;DHT22;7749;49.964;7.890;2023-05-16T08:05:46;12.40;1.00
15296;DHT22;7749;49.964;7.890;2023-05-16T08:08:15;12.50;1.00
15296;DHT22;7749;49.964;7.890;2023-05-16T08:10:45;12.40;1.00
15296;DHT22;7749;49.964;7.890;2023-05-16T08:13:12;12.60;1.00
15296;DHT22;7749;49.964;7.890;2023-05-16T08:15:40;12.60;1.00
15296;DHT22;7749;49.964;7.890;2023-05-16T08:18:12;12.60;1.00
15296;DHT22;7749;49.964;7.890;2023-05-16T08:20:41;12.50;1.00
15296;DHT22;7749;49.964;7.890;2023-05-16T08:23:08;12.40;1.00
15296;DHT22;7749;49.964;7.890;2023-05-16T08:25:36;12.60;1.00
15296;DHT22;7749;49.964;7.890;2023-05-16T08:28:03;12.60;1.00
15296;DHT22;7749;49.964;7.890;2023-05-16T08:30:34;12.30;1.00
15296;DHT22;7749;49.964;7.890;2023-05-16T08:33:01;12.10;1.00
15296;DHT22;7749;49.964;7.890;2023-05-16T08:35:31;12.20;1.00
15296;DHT22;7749;49.964;7.890;2023-05-16T08:37:59;12.30;1.00
15296;DHT22;7749;49.964;7.890;2023-05-16T08:40:27;12.10;1.00
15296;DHT22;7749;49.964;7.890;2023-05-16T08:42:55;12.00;1.00
15296;DHT22;7749;49.964;7.890;2023-05-16T08:45:22;11.90;1.00
15296;DHT22;7749;49.964;7.890;2023-05-16T08:47:53;12.00;1.00
15296;DHT22;7749;49.964;7.890;2023-05-16T08:50:23;12.10;1.00
15296;DHT22;7749;49.964;7.890;2023-05-16T08:52:51;12.20;1.00
15296;DHT22;7749;49.964;7.890;2023-05-16T08:55:20;12.20;1.00
15296;DHT22;7749;49.964;7.890;2023-05-16T08:57:50;12.10;1.00
15296;DHT22;7749;49.964;7.890;2023-05-16T09:00:21;12.50;1.00
15296;DHT22;7749;49.964;7.890;2023-05-16T09:02:48;12.40;1.00
15296;DHT22;7749;49.964;7.890;2023-05-16T09:05:16;12.40;1.00
15296;DHT22;7749;49.964;7.890;2023-05-16T09:07:47;12.50;1.00
15296;DHT22;7749;49.964;7.890;2023-05-16T09:10:15;12.80;99.90
15296;DHT22;7749;49.964;7.890;2023-05-16T09:12:43;12.80;24.20
15296;DHT22;7749;49.964;7.890;2023-05-16T09:15:10;12.70;94.50
15296;DHT22;7749;49.964;7.890;2023-05-16T09:17:43;12.70;37.50
15296;DHT22;7749;49.964;7.890;2023-05-16T09:20:16;12.60;11.00
15296;DHT22;7749;49.964;7.890;2023-05-16T09:22:52;12.60;1.00
15296;DHT22;7749;49.964;7.890;2023-05-16T09:25:21;12.80;1.00
15296;DHT22;7749;49.964;7.890;2023-05-16T09:27:59;12.80;1.00
15296;DHT22;7749;49.964;7.890;2023-05-16T09:30:33;13.00;1.00
15296;DHT22;7749;49.964;7.890;2023-05-16T09:33:01;12.80;1.00
15296;DHT22;7749;49.964;7.890;2023-05-16T09:35:30;12.70;1.00
15296;DHT22;7749;49.964;7.890;2023-05-16T09:38:15;12.70;99.90
15296;DHT22;7749;49.964;7.890;2023-05-16T09:40:44;12.70;1.00
15296;DHT22;7749;49.964;7.890;2023-05-16T09:43:14;12.50;69.10
15296;DHT22;7749;49.964;7.890;2023-05-16T09:45:45;12.50;1.00
15296;DHT22;7749;49.964;7.890;2023-05-16T09:48:14;12.60;1.00
15296;DHT22;7749;49.964;7.890;2023-05-16T09:50:50;12.60;1.00
15296;DHT22;7749;49.964;7.890;2023-05-16T09:53:31;12.60;1.00
15296;DHT22;7749;49.964;7.890;2023-05-16T09:56:25;12.50;99.90
15296;DHT22;7749;49.964;7.890;2023-05-16T09:58:56;12.40;1.00
15296;DHT22;7749;49.964;7.890;2023-05-16T10:01:24;12.50;1.00
15296;DHT22;7749;49.964;7.890;2023-05-16T10:03:52;12.40;1.00
15296;DHT22;7749;49.964;7.890;2023-05-16T10:06:20;12.60;99.90
15296;DHT22;7749;49.964;7.890;2023-05-16T10:08:51;12.60;99.90
15296;DHT22;7749;49.964;7.890;2023-05-16T10:11:18;12.70;1.00
15296;DHT22;7749;49.964;7.890;2023-05-16T10:13:47;12.80;1.00
15296;DHT22;7749;49.964;7.890;2023-05-16T10:16:21;12.90;1.00
15296;DHT22;7749;49.964;7.890;2023-05-16T10:18:50;13.20;99.90
15296;DHT22;7749;49.964;7.890;2023-05-16T10:21:22;13.30;99.90
15296;DHT22;7749;49.964;7.890;2023-05-16T10:23:51;13.30;1.00
15296;DHT22;7749;49.964;7.890;2023-05-16T10:26:21;13.70;1.00
15296;DHT22;7749;49.964;7.890;2023-05-16T10:28:53;14.00;99.90
15296;DHT22;7749;49.964;7.890;2023-05-16T10:31:21;14.10;99.90
15296;DHT22;7749;49.964;7.890;2023-05-16T10:33:49;14.40;99.90
15296;DHT22;7749;49.964;7.890;2023-05-16T10:36:17;14.30;93.60
15296;DHT22;7749;49.964;7.890;2023-05-16T10:38:45;14.30;1.00
15296;DHT22;7749;49.964;7.890;2023-05-16T10:41:14;14.40;33.30
15296;DHT22;7749;49.964;7.890;2023-05-16T10:43:44;14.50;1.00
15296;DHT22;7749;49.964;7.890;2023-05-16T10:46:13;14.50;1.00
15296;DHT22;7749;49.964;7.890;2023-05-16T10:48:41;14.80;1.00
15296;DHT22;7749;49.964;7.890;2023-05-16T10:53:54;14.90;99.90
15296;DHT22;7749;49.964;7.890;2023-05-16T10:56:26;14.90;99.90
15296;DHT22;7749;49.964;7.890;2023-05-16T10:58:54;15.40;99.90
15296;DHT22;7749;49.964;7.890;2023-05-16T11:01:27;16.20;99.90
15296;DHT22;7749;49.964;7.890;2023-05-16T11:06:31;16.60;1.00
15296;DHT22;7749;49.964;7.890;2023-05-16T11:19:57;19.10;16.30
15296;DHT22;7749;49.964;7.890;2023-05-16T11:22:28;19.70;1.00
15296;DHT22;7749;49.964;7.890;2023-05-16T11:25:05;19.80;1.00
15296;DHT22;7749;49.964;7.890;2023-05-16T11:27:41;20.20;1.00
15296;DHT22;7749;49.964;7.890;2023-05-16T11:32:37;18.80;1.00
15296;DHT22;7749;49.964;7.890;2023-05-16T11:35:07;18.40;1.00
15296;DHT22;7749;49.964;7.890;2023-05-16T11:37:35;18.50;1.00
15296;DHT22;7749;49.964;7.890;2023-05-16T11:40:03;18.10;1.00
15296;DHT22;7749;49.964;7.890;2023-05-16T11:42:34;18.90;1.00
15296;DHT22;7749;49.964;7.890;2023-05-16T11:45:16;19.20;1.00
15296;DHT22;7749;49.964;7.890;2023-05-16T11:47:45;19.20;1.00
15296;DHT22;7749;49.964;7.890;2023-05-16T11:50:18;21.20;1.00
15296;DHT22;7749;49.964;7.890;2023-05-16T11:52:51;21.10;1.00
15296;DHT22;7749;49.964;7.890;2023-05-16T11:55:27;20.30;1.00
15296;DHT22;7749;49.964;7.890;2023-05-16T11:58:09;21.20;1.00
15296;DHT22;7749;49.964;7.890;2023-05-16T12:00:49;20.90;1.00
15296;DHT22;7749;49.964;7.890;2023-05-16T12:03:18;20.30;1.00
15296;DHT22;7749;49.964;7.890;2023-05-16T12:05:50;21.60;1.00
15296;DHT22;7749;49.964;7.890;2023-05-16T12:08:20;22.60;1.00
15296;DHT22;7749;49.964;7.890;2023-05-16T12:10:53;22.20;1.00
15296;DHT22;7749;49.964;7.890;2023-05-16T12:13:23;21.80;1.00
15296;DHT22;7749;49.964;7.890;2023-05-16T12:15:51;20.50;1.00
15296;DHT22;7749;49.964;7.890;2023-05-16T12:18:22;20.10;1.00
15296;DHT22;7749;49.964;7.890;2023-05-16T12:20:50;20.30;1.00
15296;DHT22;7749;49.964;7.890;2023-05-16T12:23:18;19.10;1.00
15296;DHT22;7749;49.964;7.890;2023-05-16T12:25:46;19.30;1.00
15296;DHT22;7749;49.964;7.890;2023-05-16T12:28:15;19.70;1.00
15296;DHT22;7749;49.964;7.890;2023-05-16T12:30:43;20.00;1.00
15296;DHT22;7749;49.964;7.890;2023-05-16T12:33:14;21.20;1.00
15296;DHT22;7749;49.964;7.890;2023-05-16T12:35:45;22.10;1.00
15296;DHT22;7749;49.964;7.890;2023-05-16T12:38:14;22.60;1.00
15296;DHT22;7749;49.964;7.890;2023-05-16T12:40:44;22.20;1.00
15296;DHT22;7749;49.964;7.890;2023-05-16T12:43:21;20.30;1.00
15296;DHT22;7749;49.964;7.890;2023-05-16T12:45:51;22.10;1.00
15296;DHT22;7749;49.964;7.890;2023-05-16T12:48:23;23.10;1.00
15296;DHT22;7749;49.964;7.890;2023-05-16T12:50:50;22.70;1.00
15296;DHT22;7749;49.964;7.890;2023-05-16T12:53:18;23.40;1.00
15296;DHT22;7749;49.964;7.890;2023-05-16T12:55:46;24.30;1.00
15296;DHT22;7749;49.964;7.890;2023-05-16T12:58:13;24.10;1.00
15296;DHT22;7749;49.964;7.890;2023-05-16T13:00:40;22.20;1.00
15296;DHT22;7749;49.964;7.890;2023-05-16T13:03:08;20.30;1.00
15296;DHT22;7749;49.964;7.890;2023-05-16T13:05:38;20.20;1.00
15296;DHT22;7749;49.964;7.890;2023-05-16T13:08:06;20.80;1.00
15296;DHT22;7749;49.964;7.890;2023-05-16T13:10:34;20.80;1.00
15296;DHT22;7749;49.964;7.890;2023-05-16T13:13:02;20.10;1.00
15296;DHT22;7749;49.964;7.890;2023-05-16T13:15:30;19.60;1.00
15296;DHT22;7749;49.964;7.890;2023-05-16T13:17:58;20.20;1.00
15296;DHT22;7749;49.964;7.890;2023-05-16T13:20:26;21.20;1.00
15296;DHT22;7749;49.964;7.890;2023-05-16T13:22:54;21.40;1.00
15296;DHT22;7749;49.964;7.890;2023-05-16T13:25:33;21.70;1.00
15296;DHT22;7749;49.964;7.890;2023-05-16T13:28:01;22.90;1.00
15296;DHT22;7749;49.964;7.890;2023-05-16T13:30:28;22.80;1.00
15296;DHT22;7749;49.964;7.890;2023-05-16T13:32:56;21.30;1.00
15296;DHT22;7749;49.964;7.890;2023-05-16T13:35:25;21.40;1.00
15296;DHT22;7749;49.964;7.890;2023-05-16T13:37:53;21.50;1.00
15296;DHT22;7749;49.964;7.890;2023-05-16T13:40:20;22.40;1.00
15296;DHT22;7749;49.964;7.890;2023-05-16T13:42:48;23.90;1.00
15296;DHT22;7749;49.964;7.890;2023-05-16T13:45:18;24.20;1.00
15296;DHT22;7749;49.964;7.890;2023-05-16T13:47:46;24.60;1.00
15296;DHT22;7749;49.964;7.890;2023-05-16T13:50:14;23.10;1.00
15296;DHT22;7749;49.964;7.890;2023-05-16T13:52:42;22.30;1.00
15296;DHT22;7749;49.964;7.890;2023-05-16T13:55:13;21.80;1.00
15296;DHT22;7749;49.964;7.890;2023-05-16T13:57:50;23.00;1.00
15296;DHT22;7749;49.964;7.890;2023-05-16T14:00:18;22.90;1.00
15296;DHT22;7749;49.964;7.890;2023-05-16T14:03:06;23.30;1.00
15296;DHT22;7749;49.964;7.890;2023-05-16T14:05:33;22.90;1.00
15296;DHT22;7749;49.964;7.890;2023-05-16T14:08:02;24.20;1.00
15296;DHT22;7749;49.964;7.890;2023-05-16T14:10:29;25.70;1.00
15296;DHT22;7749;49.964;7.890;2023-05-16T14:12:58;26.10;1.00
15296;DHT22;7749;49.964;7.890;2023-05-16T14:15:33;23.40;1.00
15296;DHT22;7749;49.964;7.890;2023-05-16T14:18:00;23.00;1.00
15296;DHT22;7749;49.964;7.890;2023-05-16T14:20:39;23.30;1.00
15296;DHT22;7749;49.964;7.890;2023-05-16T14:23:10;24.00;1.00
15296;DHT22;7749;49.964;7.890;2023-05-16T14:25:38;21.40;1.00
15296;DHT22;7749;49.964;7.890;2023-05-16T14:28:05;20.00;1.00
15296;DHT22;7749;49.964;7.890;2023-05-16T14:30:32;19.70;1.00
15296;DHT22;7749;49.964;7.890;2023-05-16T14:33:00;19.40;1.00
15296;DHT22;7749;49.964;7.890;2023-05-16T14:35:29;19.80;1.00
15296;DHT22;7749;49.964;7.890;2023-05-16T14:37:57;21.60;1.00
15296;DHT22;7749;49.964;7.890;2023-05-16T14:40:25;23.30;1.00
15296;DHT22;7749;49.964;7.890;2023-05-16T14:42:52;23.90;1.00
15296;DHT22;7749;49.964;7.890;2023-05-16T14:45:19;24.50;1.00
15296;DHT22;7749;49.964;7.890;2023-05-16T14:47:47;25.40;1.00
15296;DHT22;7749;49.964;7.890;2023-05-16T14:50:14;25.90;1.00
15296;DHT22;7749;49.964;7.890;2023-05-16T14:52:42;25.80;1.00
15296;DHT22;7749;49.964;7.890;2023-05-16T14:55:15;24.70;1.00
15296;DHT22;7749;49.964;7.890;2023-05-16T14:57:42;24.90;1.00
15296;DHT22;7749;49.964;7.890;2023-05-16T15:00:14;24.60;1.00
15296;DHT22;7749;49.964;7.890;2023-05-16T15:02:43;25.00;1.00
15296;DHT22;7749;49.964;7.890;2023-05-16T15:05:14;25.30;1.00
15296;DHT22;7749;49.964;7.890;2023-05-16T15:07:41;26.40;1.00
15296;DHT22;7749;49.964;7.890;2023-05-16T15:10:11;26.20;1.00
15296;DHT22;7749;49.964;7.890;2023-05-16T15:12:39;25.40;1.00
15296;DHT22;7749;49.964;7.890;2023-05-16T15:15:10;24.20;1.00
15296;DHT22;7749;49.964;7.890;2023-05-16T15:17:40;24.30;1.00
15296;DHT22;7749;49.964;7.890;2023-05-16T15:20:09;26.90;1.00
15296;DHT22;7749;49.964;7.890;2023-05-16T15:22:40;27.00;1.00
15296;DHT22;7749;49.964;7.890;2023-05-16T15:25:08;26.10;1.00
15296;DHT22;7749;49.964;7.890;2023-05-16T15:27:35;24.80;1.00
15296;DHT22;7749;49.964;7.890;2023-05-16T15:30:03;24.60;1.00
15296;DHT22;7749;49.964;7.890;2023-05-16T15:32:31;25.20;1.00
15296;DHT22;7749;49.964;7.890;2023-05-16T15:34:58;26.70;1.00
15296;DHT22;7749;49.964;7.890;2023-05-16T15:37:26;27.30;1.00
15296;DHT22;7749;49.964;7.890;2023-05-16T15:39:54;25.50;1.00
15296;DHT22;7749;49.964;7.890;2023-05-16T15:42:22;23.10;1.00
15296;DHT22;7749;49.964;7.890;2023-05-16T15:44:49;23.70;1.00
15296;DHT22;7749;49.964;7.890;2023-05-16T15:47:26;24.10;1.00
15296;DHT22;7749;49.964;7.890;2023-05-16T15:50:19;25.80;1.00
15296;DHT22;7749;49.964;7.890;2023-05-16T15:53:02;25.40;1.00
15296;DHT22;7749;49.964;7.890;2023-05-16T15:55:42;25.90;1.00
15296;DHT22;7749;49.964;7.890;2023-05-16T15:58:20;24.00;1.00
15296;DHT22;7749;49.964;7.890;2023-05-16T16:00:57;22.80;1.00
15296;DHT22;7749;49.964;7.890;2023-05-16T16:03:39;22.90;1.00
15296;DHT22;7749;49.964;7.890;2023-05-16T16:06:10;21.10;1.00
15296;DHT22;7749;49.964;7.890;2023-05-16T16:08:45;21.00;1.00
15296;DHT22;7749;49.964;7.890;2023-05-16T16:11:28;22.10;1.00
15296;DHT22;7749;49.964;7.890;2023-05-16T16:14:09;23.40;1.00
15296;DHT22;7749;49.964;7.890;2023-05-16T16:16:43;24.70;1.00
15296;DHT22;7749;49.964;7.890;2023-05-16T16:19:56;24.80;1.00
15296;DHT22;7749;49.964;7.890;2023-05-16T16:22:27;24.80;1.00
15296;DHT22;7749;49.964;7.890;2023-05-16T16:25:15;25.90;1.00
15296;DHT22;7749;49.964;7.890;2023-05-16T16:28:04;26.30;1.00
15296;DHT22;7749;49.964;7.890;2023-05-16T16:31:10;27.10;1.00
15296;DHT22;7749;49.964;7.890;2023-05-16T16:33:57;26.00;1.00
15296;DHT22;7749;49.964;7.890;2023-05-16T16:36:59;26.30;1.00
15296;DHT22;7749;49.964;7.890;2023-05-16T16:39:43;25.30;1.00
15296;DHT22;7749;49.964;7.890;2023-05-16T16:42:10;24.70;1.00
15296;DHT22;7749;49.964;7.890;2023-05-16T16:44:38;24.10;1.00
15296;DHT22;7749;49.964;7.890;2023-05-16T16:47:07;22.00;1.00
15296;DHT22;7749;49.964;7.890;2023-05-16T16:49:35;20.80;1.00
15296;DHT22;7749;49.964;7.890;2023-05-16T16:52:03;20.00;1.00
15296;DHT22;7749;49.964;7.890;2023-05-16T16:54:30;19.50;1.00
15296;DHT22;7749;49.964;7.890;2023-05-16T16:56:57;19.40;1.00
15296;DHT22;7749;49.964;7.890;2023-05-16T16:59:25;20.40;1.00